createdAt,value
2023-05-21T00:02:18.758Z,28.20
2023-05-21T00:04:46.462Z,28.80
2023-05-21T00:07:15.271Z,30.13
2023-05-21T00:09:42.486Z,30.43
2023-05-21T00:12:09.814Z,29.93
2023-05-21T00:14:37.300Z,32.73
2023-05-21T00:17:04.515Z,30.63
2023-05-21T00:19:33.709Z,33.10
2023-05-21T00:22:04.600Z,29.87
2023-05-21T00:24:31.765Z,32.40
2023-05-21T00:26:58.971Z,29.43
2023-05-21T00:29:27.743Z,29.13
2023-05-21T00:31:55.903Z,28.03
2023-05-21T00:34:23.237Z,27.97
2023-05-21T00:36:50.448Z,29.50
2023-05-21T00:39:17.612Z,28.73
2023-05-21T00:41:46.655Z,28.53
2023-05-21T00:44:14.060Z,29.73
2023-05-21T00:46:41.886Z,29.07
2023-05-21T00:49:09.042Z,28.13
2023-05-21T00:51:36.210Z,26.87
2023-05-21T00:54:03.639Z,28.87
2023-05-21T00:56:31.197Z,29.30
2023-05-21T00:58:58.587Z,26.63
2023-05-21T01:01:26.111Z,27.57
2023-05-21T01:03:54.375Z,26.20
2023-05-21T01:06:21.642Z,29.07
2023-05-21T01:08:48.799Z,26.73
2023-05-21T01:11:16.138Z,27.17
2023-05-21T01:13:43.844Z,28.13
2023-05-21T01:16:13.431Z,28.43
2023-05-21T01:18:43.522Z,28.17
2023-05-21T01:21:10.886Z,29.47
2023-05-21T01:23:38.056Z,27.63
2023-05-21T01:26:05.236Z,30.37
2023-05-21T01:28:34.477Z,33.13
2023-05-21T01:31:05.967Z,34.90
2023-05-21T01:33:49.657Z,34.80
2023-05-21T01:36:24.189Z,28.47
2023-05-21T01:38:58.624Z,29.37
2023-05-21T01:41:26.351Z,30.23
2023-05-21T01:43:54.145Z,30.90
2023-05-21T01:46:23.940Z,30.43
2023-05-21T01:48:51.915Z,33.70
2023-05-21T01:51:19.632Z,31.00
2023-05-21T01:53:47.036Z,29.47
2023-05-21T01:56:15.895Z,29.77
2023-05-21T01:58:44.041Z,32.67
2023-05-21T02:01:12.030Z,31.47
2023-05-21T02:03:39.269Z,28.57
2023-05-21T02:06:06.490Z,30.43
2023-05-21T02:08:33.686Z,29.00
2023-05-21T02:11:00.837Z,26.40
2023-05-21T02:13:29.200Z,26.23
2023-05-21T02:15:56.521Z,33.33
2023-05-21T02:18:23.775Z,28.30
2023-05-21T02:20:50.964Z,28.47
2023-05-21T02:23:18.196Z,31.20
2023-05-21T02:25:45.605Z,28.73
2023-05-21T02:28:12.843Z,29.70
2023-05-21T02:30:40.015Z,31.27
2023-05-21T02:33:09.041Z,31.27
2023-05-21T02:35:36.677Z,27.40
2023-05-21T02:38:04.099Z,26.43
2023-05-21T02:40:32.807Z,28.97
2023-05-21T02:42:59.997Z,28.93
2023-05-21T02:45:27.204Z,27.97
2023-05-21T02:47:54.412Z,31.63
2023-05-21T02:50:22.815Z,27.23
2023-05-21T02:52:50.060Z,27.10
2023-05-21T02:55:17.195Z,26.93
2023-05-21T02:57:44.329Z,28.23
2023-05-21T03:00:11.822Z,25.67
2023-05-21T03:02:39.026Z,27.10
2023-05-21T03:05:06.555Z,27.20
2023-05-21T03:07:33.761Z,26.23
2023-05-21T03:10:00.912Z,26.70
2023-05-21T03:12:28.065Z,27.20
2023-05-21T03:14:56.386Z,29.03
2023-05-21T03:17:23.602Z,29.53
2023-05-21T03:19:50.802Z,27.70
2023-05-21T03:22:17.983Z,27.53
2023-05-21T03:24:45.340Z,25.33
2023-05-21T03:27:12.529Z,26.93
2023-05-21T03:29:40.023Z,28.17
2023-05-21T03:32:07.443Z,26.03
2023-05-21T03:34:34.637Z,28.30
2023-05-21T03:37:01.808Z,28.07
2023-05-21T03:39:29.035Z,26.97
2023-05-21T03:41:56.219Z,24.53
2023-05-21T03:44:23.361Z,25.33
2023-05-21T03:46:50.526Z,29.30
2023-05-21T03:49:17.679Z,29.30
2023-05-21T03:51:44.819Z,27.93
2023-05-21T03:54:11.945Z,30.70
2023-05-21T03:56:39.150Z,28.43
2023-05-21T03:59:06.329Z,27.80
2023-05-21T04:01:33.485Z,29.60
2023-05-21T04:04:00.849Z,27.70
2023-05-21T04:06:28.153Z,28.00
2023-05-21T04:08:55.430Z,26.70
2023-05-21T04:11:22.751Z,29.93
2023-05-21T04:13:49.879Z,25.83
2023-05-21T04:16:19.176Z,24.67
2023-05-21T04:18:47.293Z,29.27
2023-05-21T04:21:14.604Z,29.70
2023-05-21T04:23:41.765Z,26.57
2023-05-21T04:26:09.001Z,27.30
2023-05-21T04:28:36.389Z,29.37
2023-05-21T04:31:03.627Z,24.67
2023-05-21T04:33:30.809Z,27.37
2023-05-21T04:35:58.302Z,24.50
2023-05-21T04:38:25.877Z,27.90
2023-05-21T04:40:53.216Z,25.83
2023-05-21T04:43:26.932Z,23.57
2023-05-21T04:45:57.361Z,26.97
2023-05-21T04:48:28.058Z,27.90
2023-05-21T04:50:56.770Z,21.97
2023-05-21T04:53:26.021Z,26.13
2023-05-21T04:55:53.472Z,24.70
2023-05-21T04:58:20.703Z,23.13
2023-05-21T05:00:50.681Z,24.30
2023-05-21T05:03:18.468Z,23.03
2023-05-21T05:05:45.957Z,21.60
2023-05-21T05:08:15.480Z,21.90
2023-05-21T05:10:43.270Z,20.87
2023-05-21T05:13:10.542Z,19.27
2023-05-21T05:15:37.815Z,20.77
2023-05-21T05:18:05.330Z,21.30
2023-05-21T05:20:32.495Z,21.33
2023-05-21T05:22:59.688Z,19.75
2023-05-21T05:25:27.490Z,20.15
2023-05-21T05:27:54.621Z,20.92
2023-05-21T05:30:21.801Z,19.65
2023-05-21T05:32:49.061Z,18.80
2023-05-21T05:35:16.227Z,19.75
2023-05-21T05:37:43.352Z,23.77
2023-05-21T05:40:10.984Z,21.58
2023-05-21T05:42:38.141Z,19.83
2023-05-21T05:45:05.490Z,23.50
2023-05-21T05:47:32.694Z,23.00
2023-05-21T05:49:59.876Z,22.95
2023-05-21T05:52:27.066Z,22.00
2023-05-21T05:54:54.192Z,22.63
2023-05-21T05:57:21.355Z,23.55
2023-05-21T05:59:48.522Z,24.27
2023-05-21T06:02:15.937Z,18.30
2023-05-21T06:04:43.204Z,20.00
2023-05-21T06:07:10.365Z,19.02
2023-05-21T06:09:38.839Z,17.80
2023-05-21T06:12:12.260Z,16.40
2023-05-21T06:14:43.789Z,17.15
2023-05-21T06:17:12.605Z,19.00
2023-05-21T06:19:40.438Z,16.80
2023-05-21T06:22:07.579Z,16.67
2023-05-21T06:24:34.738Z,17.90
2023-05-21T06:27:02.137Z,18.95
2023-05-21T06:29:29.310Z,17.13
2023-05-21T06:31:56.701Z,18.35
2023-05-21T06:34:23.864Z,15.25
2023-05-21T06:36:51.493Z,16.10
2023-05-21T06:39:18.652Z,20.90
2023-05-21T06:41:45.878Z,15.63
2023-05-21T06:44:13.083Z,16.40
2023-05-21T06:46:40.431Z,16.30
2023-05-21T06:49:07.944Z,15.80
2023-05-21T06:51:35.123Z,15.70
2023-05-21T06:54:02.261Z,16.17
2023-05-21T06:56:29.510Z,16.90
2023-05-21T06:58:56.836Z,18.13
2023-05-21T07:01:24.469Z,16.85
2023-05-21T07:03:51.706Z,17.75
2023-05-21T07:06:18.892Z,17.25
2023-05-21T07:08:46.114Z,18.83
2023-05-21T07:11:13.223Z,17.55
2023-05-21T07:13:40.366Z,18.70
2023-05-21T07:16:07.739Z,16.83
2023-05-21T07:18:34.886Z,17.33
2023-05-21T07:21:02.001Z,19.00
2023-05-21T07:23:29.143Z,18.70
2023-05-21T07:25:56.278Z,17.02
2023-05-21T07:28:23.449Z,17.83
2023-05-21T07:30:50.614Z,14.73
2023-05-21T07:33:20.581Z,17.42
2023-05-21T07:35:47.771Z,16.90
2023-05-21T07:38:14.916Z,15.60
2023-05-21T07:40:42.072Z,15.13
2023-05-21T07:43:09.264Z,14.63
2023-05-21T07:45:36.668Z,16.42
2023-05-21T07:48:04.091Z,14.80
2023-05-21T07:50:31.326Z,18.08
2023-05-21T07:52:58.541Z,16.10
2023-05-21T07:55:25.789Z,14.18
2023-05-21T07:57:52.946Z,19.65
2023-05-21T08:00:20.356Z,13.88
2023-05-21T08:02:47.652Z,13.05
2023-05-21T08:05:16.414Z,17.60
2023-05-21T08:07:43.715Z,15.57
2023-05-21T08:10:11.009Z,14.60
2023-05-21T08:12:38.126Z,16.05
2023-05-21T08:15:05.459Z,14.50
2023-05-21T08:17:32.691Z,16.38
2023-05-21T08:19:59.838Z,15.27
2023-05-21T08:22:26.975Z,13.75
2023-05-21T08:24:54.118Z,15.45
2023-05-21T08:27:21.359Z,15.10
2023-05-21T08:29:48.526Z,15.32
2023-05-21T08:32:15.752Z,14.75
2023-05-21T08:34:42.935Z,15.77
2023-05-21T08:37:10.080Z,14.15
2023-05-21T08:39:37.295Z,14.07
2023-05-21T08:42:10.591Z,14.88
2023-05-21T08:44:38.648Z,16.63
2023-05-21T08:47:08.317Z,13.30
2023-05-21T08:49:35.997Z,15.02
2023-05-21T08:52:03.750Z,13.75
2023-05-21T08:54:31.085Z,14.10
2023-05-21T08:56:59.048Z,14.98
2023-05-21T08:59:26.367Z,14.35
2023-05-21T09:01:53.862Z,16.98
2023-05-21T09:04:22.039Z,18.45
2023-05-21T09:06:49.337Z,12.98
2023-05-21T09:09:33.483Z,16.75
2023-05-21T09:12:00.965Z,14.25
2023-05-21T09:14:28.585Z,14.65
2023-05-21T09:16:55.796Z,13.68
2023-05-21T09:19:23.574Z,12.68
2023-05-21T09:21:53.854Z,14.73
2023-05-21T09:24:23.969Z,13.73
2023-05-21T09:26:51.358Z,14.85
2023-05-21T09:29:19.008Z,14.88
2023-05-21T09:31:46.405Z,15.88
2023-05-21T09:34:17.070Z,12.82
2023-05-21T09:36:44.303Z,13.27
2023-05-21T09:39:16.378Z,15.60
2023-05-21T09:41:43.800Z,14.35
2023-05-21T09:44:11.242Z,14.65
2023-05-21T09:46:42.152Z,13.55
2023-05-21T09:49:23.537Z,16.75
2023-05-21T09:51:50.885Z,13.70
2023-05-21T09:54:18.020Z,12.25
2023-05-21T09:56:45.259Z,14.30
2023-05-21T09:59:12.397Z,13.50
2023-05-21T10:01:39.569Z,13.30
2023-05-21T10:04:10.514Z,13.07
2023-05-21T10:06:48.077Z,12.88
2023-05-21T10:09:16.008Z,14.88
2023-05-21T10:11:45.712Z,13.35
2023-05-21T10:14:17.190Z,15.68
2023-05-21T10:16:45.037Z,12.70
2023-05-21T10:19:12.742Z,13.68
2023-05-21T10:21:40.664Z,14.43
2023-05-21T10:24:07.979Z,13.90
2023-05-21T10:26:35.234Z,13.75
2023-05-21T10:29:03.022Z,13.45
2023-05-21T10:31:30.296Z,13.55
2023-05-21T10:33:57.936Z,12.55
2023-05-21T10:36:27.934Z,14.75
2023-05-21T10:38:55.582Z,15.02
2023-05-21T10:41:23.674Z,13.60
2023-05-21T10:43:56.651Z,13.07
2023-05-21T10:46:32.860Z,13.27
2023-05-21T10:49:22.656Z,13.88
2023-05-21T10:52:00.641Z,11.82
2023-05-21T10:54:36.972Z,12.38
2023-05-21T10:57:13.048Z,12.45
2023-05-21T10:59:43.914Z,13.80
2023-05-21T11:02:12.300Z,13.80
2023-05-21T11:04:40.114Z,13.93
2023-05-21T11:07:07.451Z,12.32
2023-05-21T11:09:34.597Z,15.35
2023-05-21T11:12:03.085Z,16.77
2023-05-21T11:14:40.497Z,10.93
2023-05-21T11:17:14.518Z,12.40
2023-05-21T11:19:43.340Z,12.63
2023-05-21T11:22:10.682Z,11.07
2023-05-21T11:24:39.642Z,12.27
2023-05-21T11:27:07.093Z,16.40
2023-05-21T11:29:41.494Z,12.25
2023-05-21T11:32:09.344Z,12.35
2023-05-21T11:34:45.812Z,13.15
2023-05-21T11:37:26.836Z,12.98
2023-05-21T11:39:54.861Z,14.82
2023-05-21T11:42:28.442Z,13.70
2023-05-21T11:45:00.435Z,12.50
2023-05-21T11:47:28.414Z,12.90
2023-05-21T11:49:57.053Z,12.63
2023-05-21T11:52:25.232Z,12.25
2023-05-21T11:54:55.529Z,12.73
2023-05-21T11:57:23.040Z,13.77
2023-05-21T11:59:53.644Z,12.93
2023-05-21T12:02:21.757Z,11.48
2023-05-21T12:04:49.970Z,12.40
2023-05-21T12:07:19.141Z,13.25
2023-05-21T12:09:47.716Z,13.18
2023-05-21T12:12:16.191Z,13.50
2023-05-21T12:14:50.280Z,14.82
2023-05-21T12:17:18.193Z,14.70
2023-05-21T12:19:46.046Z,12.40
2023-05-21T12:22:13.256Z,12.10
2023-05-21T12:24:40.416Z,12.10
2023-05-21T12:27:13.192Z,12.65
2023-05-21T12:29:42.410Z,12.98
2023-05-21T12:32:10.705Z,11.88
2023-05-21T12:34:48.650Z,16.27
2023-05-21T12:37:17.268Z,13.75
2023-05-21T12:39:45.350Z,14.30
2023-05-21T12:42:12.767Z,13.20
2023-05-21T12:44:46.961Z,12.63
2023-05-21T12:47:14.549Z,14.20
2023-05-21T12:49:42.888Z,14.88
2023-05-21T12:52:10.898Z,12.63
2023-05-21T12:54:43.190Z,16.00
2023-05-21T12:57:17.244Z,11.63
2023-05-21T12:59:57.517Z,13.05
2023-05-21T13:02:24.874Z,13.05
2023-05-21T13:04:55.809Z,12.75
2023-05-21T13:07:23.007Z,14.15
2023-05-21T13:09:53.033Z,13.23
2023-05-21T13:12:24.179Z,13.45
2023-05-21T13:14:51.935Z,11.95
2023-05-21T13:17:19.666Z,13.88
2023-05-21T13:20:09.883Z,11.82
2023-05-21T13:22:43.710Z,12.23
2023-05-21T13:25:11.576Z,16.50
2023-05-21T13:27:42.034Z,11.02
2023-05-21T13:30:11.371Z,11.15
2023-05-21T13:32:39.210Z,11.63
2023-05-21T13:35:06.795Z,12.90
2023-05-21T13:37:36.166Z,12.77
2023-05-21T13:40:07.224Z,10.10
2023-05-21T13:42:35.438Z,11.30
2023-05-21T13:45:02.850Z,13.65
2023-05-21T13:47:30.064Z,11.90
2023-05-21T13:49:57.219Z,11.23
2023-05-21T13:52:24.361Z,16.40
2023-05-21T13:54:51.587Z,12.18
2023-05-21T13:57:18.761Z,13.20
2023-05-21T13:59:45.919Z,11.15
2023-05-21T14:02:13.113Z,11.57
2023-05-21T14:04:40.342Z,13.40
2023-05-21T14:07:07.969Z,16.17
2023-05-21T14:09:35.719Z,12.50
2023-05-21T14:12:06.247Z,12.45
2023-05-21T14:14:33.846Z,12.95
2023-05-21T14:17:01.119Z,11.68
2023-05-21T14:19:30.169Z,12.35
2023-05-21T14:21:57.713Z,11.88
2023-05-21T14:24:24.841Z,13.07
2023-05-21T14:26:51.990Z,11.20
2023-05-21T14:29:19.156Z,14.73
2023-05-21T14:31:46.494Z,14.10
2023-05-21T14:34:13.765Z,16.05
2023-05-21T14:36:41.018Z,12.02
2023-05-21T14:39:08.176Z,15.45
2023-05-21T14:41:38.940Z,12.10
2023-05-21T14:44:06.149Z,12.00
2023-05-21T14:46:33.618Z,12.75
2023-05-21T14:49:00.956Z,12.07
2023-05-21T14:51:28.168Z,12.82
2023-05-21T14:53:57.651Z,15.50
2023-05-21T14:56:27.307Z,15.48
2023-05-21T14:58:54.732Z,13.32
2023-05-21T15:01:22.064Z,12.75
2023-05-21T15:03:49.511Z,13.60
2023-05-21T15:06:16.854Z,13.00
2023-05-21T15:08:44.059Z,14.13
2023-05-21T15:11:11.590Z,16.02
2023-05-21T15:13:38.998Z,11.38
2023-05-21T15:16:06.492Z,12.45
2023-05-21T15:18:33.951Z,12.57
2023-05-21T15:21:01.253Z,11.43
2023-05-21T15:23:28.573Z,12.55
2023-05-21T15:25:55.891Z,12.52
2023-05-21T15:28:23.268Z,13.15
2023-05-21T15:30:50.500Z,13.05
2023-05-21T15:33:17.769Z,12.95
2023-05-21T15:35:45.347Z,11.80
2023-05-21T15:38:12.847Z,14.27
2023-05-21T15:40:44.316Z,12.05
2023-05-21T15:43:11.508Z,12.25
2023-05-21T15:45:39.264Z,11.70
2023-05-21T15:48:07.087Z,11.27
2023-05-21T15:50:35.782Z,13.85
2023-05-21T15:53:04.282Z,12.70
2023-05-21T15:55:34.867Z,13.18
2023-05-21T15:58:03.846Z,11.65
2023-05-21T16:00:31.005Z,16.65
2023-05-21T16:02:58.407Z,13.20
2023-05-21T16:05:26.416Z,13.52
2023-05-21T16:07:53.604Z,13.05
2023-05-21T16:10:21.762Z,13.02
2023-05-21T16:12:48.914Z,13.85
2023-05-21T16:15:16.103Z,13.05
2023-05-21T16:17:43.345Z,12.75
2023-05-21T16:20:10.740Z,12.23
2023-05-21T16:22:37.914Z,11.60
2023-05-21T16:25:05.250Z,12.43
2023-05-21T16:27:32.483Z,15.80
2023-05-21T16:29:59.876Z,12.48
2023-05-21T16:32:28.553Z,12.30
2023-05-21T16:34:55.783Z,13.82
2023-05-21T16:37:22.925Z,15.00
2023-05-21T16:39:50.164Z,14.57
2023-05-21T16:42:17.378Z,14.90
2023-05-21T16:44:44.744Z,14.07
2023-05-21T16:47:11.895Z,12.68
2023-05-21T16:49:39.088Z,12.52
2023-05-21T16:52:06.376Z,13.70
2023-05-21T16:54:34.103Z,13.32
2023-05-21T16:57:01.450Z,16.30
2023-05-21T16:59:29.052Z,14.30
2023-05-21T17:01:56.205Z,13.10
2023-05-21T17:04:23.436Z,11.60
2023-05-21T17:06:50.560Z,11.10
2023-05-21T17:09:18.794Z,12.25
2023-05-21T17:11:46.157Z,13.88
2023-05-21T17:14:17.492Z,12.65
2023-05-21T17:16:50.744Z,12.80
2023-05-21T17:19:17.971Z,15.48
2023-05-21T17:21:45.253Z,13.55
2023-05-21T17:24:12.455Z,15.40
2023-05-21T17:26:39.604Z,13.27
2023-05-21T17:29:06.761Z,12.88
2023-05-21T17:31:34.348Z,14.43
2023-05-21T17:34:01.599Z,16.35
2023-05-21T17:36:28.777Z,14.00
2023-05-21T17:38:55.968Z,13.82
2023-05-21T17:41:25.241Z,12.98
2023-05-21T17:43:52.529Z,17.95
2023-05-21T17:46:19.839Z,15.43
2023-05-21T17:48:47.096Z,14.35
2023-05-21T17:51:14.305Z,15.18
2023-05-21T17:53:41.654Z,15.90
2023-05-21T17:56:10.462Z,13.23
2023-05-21T17:58:37.713Z,13.07
2023-05-21T18:01:05.075Z,12.60
2023-05-21T18:03:32.414Z,15.05
2023-05-21T18:05:59.642Z,13.57
2023-05-21T18:08:26.998Z,15.18
2023-05-21T18:10:54.174Z,13.70
2023-05-21T18:13:21.379Z,14.85
2023-05-21T18:15:48.526Z,14.85
2023-05-21T18:18:20.624Z,15.43
2023-05-21T18:20:49.006Z,13.93
2023-05-21T18:23:16.394Z,16.92
2023-05-21T18:25:43.570Z,15.40
2023-05-21T18:28:10.953Z,14.88
2023-05-21T18:30:38.423Z,17.08
2023-05-21T18:33:05.942Z,13.07
2023-05-21T18:35:33.176Z,15.75
2023-05-21T18:38:00.319Z,17.50
2023-05-21T18:40:30.618Z,21.95
2023-05-21T18:42:58.008Z,14.65
2023-05-21T18:45:25.209Z,14.13
2023-05-21T18:47:52.410Z,18.17
2023-05-21T18:50:20.483Z,18.25
2023-05-21T18:52:47.729Z,18.45
2023-05-21T18:55:15.117Z,14.48
2023-05-21T18:57:42.257Z,14.50
2023-05-21T19:00:11.431Z,15.15
2023-05-21T19:02:38.730Z,16.05
2023-05-21T19:05:06.609Z,16.33
2023-05-21T19:07:34.117Z,16.35
2023-05-21T19:10:01.316Z,15.57
2023-05-21T19:12:31.242Z,14.50
2023-05-21T19:14:59.486Z,16.63
2023-05-21T19:17:26.717Z,15.60
2023-05-21T19:19:57.523Z,15.23
2023-05-21T19:22:25.133Z,15.43
2023-05-21T19:24:52.485Z,16.80
2023-05-21T19:27:19.876Z,16.13
2023-05-21T19:29:47.447Z,17.08
2023-05-21T19:32:15.904Z,15.10
2023-05-21T19:34:43.531Z,16.58
2023-05-21T19:37:10.793Z,17.13
2023-05-21T19:39:38.747Z,18.20
2023-05-21T19:42:06.386Z,18.38
2023-05-21T19:44:33.571Z,14.48
2023-05-21T19:47:03.865Z,14.30
2023-05-21T19:49:30.999Z,18.27
2023-05-21T19:51:58.334Z,17.63
2023-05-21T19:54:25.697Z,18.42
2023-05-21T19:56:52.893Z,16.67
2023-05-21T19:59:20.586Z,15.98
2023-05-21T20:01:47.872Z,14.43
2023-05-21T20:04:15.324Z,16.10
2023-05-21T20:06:42.514Z,17.00
2023-05-21T20:09:11.921Z,15.95
2023-05-21T20:11:39.093Z,18.30
2023-05-21T20:14:06.459Z,16.63
2023-05-21T20:16:33.706Z,17.83
2023-05-21T20:19:01.694Z,18.95
2023-05-21T20:21:31.517Z,18.35
2023-05-21T20:23:58.753Z,19.05
2023-05-21T20:26:26.400Z,19.38
2023-05-21T20:28:54.023Z,18.50
2023-05-21T20:31:21.774Z,18.00
2023-05-21T20:33:52.280Z,18.58
2023-05-21T20:36:21.194Z,18.05
2023-05-21T20:38:48.560Z,20.35
2023-05-21T20:41:15.731Z,18.10
2023-05-21T20:43:45.347Z,19.88
2023-05-21T20:46:12.565Z,16.50
2023-05-21T20:48:39.763Z,16.55
2023-05-21T20:51:06.988Z,16.40
2023-05-21T20:53:34.126Z,18.65
2023-05-21T20:56:01.720Z,17.45
2023-05-21T20:58:29.003Z,18.73
2023-05-21T21:00:56.145Z,16.83
2023-05-21T21:03:23.621Z,17.27
2023-05-21T21:05:50.907Z,17.63
2023-05-21T21:08:18.124Z,19.00
2023-05-21T21:10:46.875Z,20.27
2023-05-21T21:13:14.509Z,17.80
2023-05-21T21:15:43.799Z,18.40
2023-05-21T21:18:12.552Z,19.27
2023-05-21T21:20:41.351Z,18.67
2023-05-21T21:23:08.881Z,17.05
2023-05-21T21:25:36.260Z,19.50
2023-05-21T21:28:03.461Z,20.70
2023-05-21T21:30:30.842Z,17.73
2023-05-21T21:32:58.147Z,18.55
2023-05-21T21:35:25.453Z,20.02
2023-05-21T21:37:52.640Z,20.10
2023-05-21T21:40:19.800Z,22.73
2023-05-21T21:42:47.027Z,18.48
2023-05-21T21:45:14.161Z,21.73
2023-05-21T21:47:41.395Z,20.35
2023-05-21T21:50:08.825Z,20.87
2023-05-21T21:52:39.958Z,22.63
2023-05-21T21:55:10.823Z,18.48
2023-05-21T21:57:39.137Z,22.33
2023-05-21T22:00:11.299Z,21.50
2023-05-21T22:02:40.144Z,20.03
2023-05-21T22:05:08.645Z,21.63
2023-05-21T22:07:38.605Z,23.00
2023-05-21T22:10:06.345Z,20.92
2023-05-21T22:12:34.002Z,20.37
2023-05-21T22:15:05.733Z,22.33
2023-05-21T22:17:34.102Z,19.70
2023-05-21T22:20:01.864Z,20.13
2023-05-21T22:22:29.171Z,21.63
2023-05-21T22:24:56.472Z,24.55
2023-05-21T22:27:23.644Z,20.43
2023-05-21T22:29:50.853Z,20.73
2023-05-21T22:32:18.099Z,21.03
2023-05-21T22:34:45.270Z,21.67
2023-05-21T22:37:12.525Z,21.57
2023-05-21T22:39:39.718Z,20.27
2023-05-21T22:42:07.078Z,20.97
2023-05-21T22:44:34.338Z,21.37
2023-05-21T22:47:03.769Z,20.73
2023-05-21T22:49:32.721Z,21.13
2023-05-21T22:52:05.228Z,19.30
2023-05-21T22:54:32.810Z,20.70
2023-05-21T22:57:01.130Z,21.37
2023-05-21T22:59:32.711Z,24.93
2023-05-21T23:02:00.018Z,23.13
2023-05-21T23:04:43.126Z,24.10
2023-05-21T23:07:11.318Z,22.60
2023-05-21T23:09:38.565Z,21.37
2023-05-21T23:12:05.974Z,20.93
2023-05-21T23:14:33.271Z,22.70
2023-05-21T23:17:04.515Z,22.83
2023-05-21T23:19:32.977Z,23.47
2023-05-21T23:22:00.557Z,22.80
2023-05-21T23:24:29.507Z,24.93
2023-05-21T23:27:01.790Z,23.10
2023-05-21T23:29:29.548Z,22.33
2023-05-21T23:31:56.883Z,21.20
2023-05-21T23:34:24.828Z,23.57
2023-05-21T23:36:52.318Z,22.87
2023-05-21T23:39:19.497Z,25.27
2023-05-21T23:41:46.671Z,21.70
2023-05-21T23:44:15.361Z,24.93
2023-05-21T23:46:43.799Z,24.33
2023-05-21T23:49:11.626Z,24.13
2023-05-21T23:51:39.094Z,24.63
2023-05-21T23:54:06.705Z,24.13
2023-05-21T23:56:33.882Z,24.43
2023-05-21T23:59:01.021Z,25.33
